sensor_id;sensor_type;location;lat;lon;timestamp;P1;durP1;ratioP1;P2;durP2;ratioP2
71558;SDS011;59382;43.852;25.952;2023-04-01T00:01:31;9.48;;;6.00;;
71558;SDS011;59382;43.852;25.952;2023-04-01T00:03:57;5.82;;;4.88;;
71558;SDS011;59382;43.852;25.952;2023-04-01T00:06:23;9.05;;;5.82;;
71558;SDS011;59382;43.852;25.952;2023-04-01T00:08:48;5.68;;;4.63;;
71558;SDS011;59382;43.852;25.952;2023-04-01T00:11:15;8.75;;;4.45;;
71558;SDS011;59382;43.852;25.952;2023-04-01T00:13:42;9.20;;;5.22;;
71558;SDS011;59382;43.852;25.952;2023-04-01T00:16:07;6.93;;;4.70;;
71558;SDS011;59382;43.852;25.952;2023-04-01T00:18:34;7.28;;;4.07;;
71558;SDS011;59382;43.852;25.952;2023-04-01T00:20:59;5.95;;;4.75;;
71558;SDS011;59382;43.852;25.952;2023-04-01T00:23:25;7.00;;;4.95;;
71558;SDS011;59382;43.852;25.952;2023-04-01T00:25:51;8.43;;;4.90;;
71558;SDS011;59382;43.852;25.952;2023-04-01T00:28:17;8.20;;;5.53;;
71558;SDS011;59382;43.852;25.952;2023-04-01T00:30:45;6.47;;;5.10;;
71558;SDS011;59382;43.852;25.952;2023-04-01T00:33:11;6.68;;;5.18;;
71558;SDS011;59382;43.852;25.952;2023-04-01T00:35:37;11.50;;;6.10;;
71558;SDS011;59382;43.852;25.952;2023-04-01T00:38:04;9.60;;;5.63;;
71558;SDS011;59382;43.852;25.952;2023-04-01T00:40:33;14.57;;;7.00;;
71558;SDS011;59382;43.852;25.952;2023-04-01T00:43:00;10.30;;;6.40;;
71558;SDS011;59382;43.852;25.952;2023-04-01T00:47:54;8.20;;;5.80;;
71558;SDS011;59382;43.852;25.952;2023-04-01T00:50:22;8.40;;;5.20;;
71558;SDS011;59382;43.852;25.952;2023-04-01T00:52:50;9.27;;;5.75;;
71558;SDS011;59382;43.852;25.952;2023-04-01T00:55:16;9.57;;;5.75;;
71558;SDS011;59382;43.852;25.952;2023-04-01T00:57:46;8.30;;;5.80;;
71558;SDS011;59382;43.852;25.952;2023-04-01T01:00:15;8.10;;;5.97;;
71558;SDS011;59382;43.852;25.952;2023-04-01T01:02:43;10.35;;;6.28;;
71558;SDS011;59382;43.852;25.952;2023-04-01T01:05:14;10.05;;;6.35;;
71558;SDS011;59382;43.852;25.952;2023-04-01T01:16:04;10.68;;;6.20;;
71558;SDS011;59382;43.852;25.952;2023-04-01T01:32:06;12.80;;;7.88;;
71558;SDS011;59382;43.852;25.952;2023-04-01T01:34:31;10.68;;;6.95;;
71558;SDS011;59382;43.852;25.952;2023-04-01T01:37:01;10.93;;;7.78;;
71558;SDS011;59382;43.852;25.952;2023-04-01T01:39:33;14.25;;;8.30;;
71558;SDS011;59382;43.852;25.952;2023-04-01T01:42:01;8.80;;;7.07;;
71558;SDS011;59382;43.852;25.952;2023-04-01T01:44:30;10.23;;;7.15;;
71558;SDS011;59382;43.852;25.952;2023-04-01T01:46:59;13.95;;;7.70;;
71558;SDS011;59382;43.852;25.952;2023-04-01T01:49:25;10.75;;;7.43;;
71558;SDS011;59382;43.852;25.952;2023-04-01T01:51:55;11.73;;;7.72;;
71558;SDS011;59382;43.852;25.952;2023-04-01T01:54:21;13.23;;;7.97;;
71558;SDS011;59382;43.852;25.952;2023-04-01T01:56:48;11.60;;;7.78;;
71558;SDS011;59382;43.852;25.952;2023-04-01T01:59:16;13.10;;;7.93;;
71558;SDS011;59382;43.852;25.952;2023-04-01T02:01:46;14.13;;;7.75;;
71558;SDS011;59382;43.852;25.952;2023-04-01T02:04:15;17.60;;;8.55;;
71558;SDS011;59382;43.852;25.952;2023-04-01T02:06:46;13.80;;;8.70;;
71558;SDS011;59382;43.852;25.952;2023-04-01T02:09:18;17.23;;;9.38;;
71558;SDS011;59382;43.852;25.952;2023-04-01T02:11:57;14.02;;;8.05;;
71558;SDS011;59382;43.852;25.952;2023-04-01T02:14:28;13.32;;;8.35;;
71558;SDS011;59382;43.852;25.952;2023-04-01T02:17:23;12.38;;;8.50;;
71558;SDS011;59382;43.852;25.952;2023-04-01T02:19:59;13.77;;;8.20;;
71558;SDS011;59382;43.852;25.952;2023-04-01T02:22:37;14.35;;;8.55;;
71558;SDS011;59382;43.852;25.952;2023-04-01T02:25:13;11.82;;;8.73;;
71558;SDS011;59382;43.852;25.952;2023-04-01T02:27:41;18.40;;;8.75;;
71558;SDS011;59382;43.852;25.952;2023-04-01T02:30:10;12.40;;;9.43;;
71558;SDS011;59382;43.852;25.952;2023-04-01T02:32:36;13.43;;;8.63;;
71558;SDS011;59382;43.852;25.952;2023-04-01T02:35:07;14.40;;;8.70;;
71558;SDS011;59382;43.852;25.952;2023-04-01T02:37:35;11.25;;;7.57;;
71558;SDS011;59382;43.852;25.952;2023-04-01T02:40:05;11.02;;;7.93;;
71558;SDS011;59382;43.852;25.952;2023-04-01T02:42:33;12.45;;;7.32;;
71558;SDS011;59382;43.852;25.952;2023-04-01T02:44:59;8.85;;;6.85;;
71558;SDS011;59382;43.852;25.952;2023-04-01T02:47:25;10.68;;;7.65;;
71558;SDS011;59382;43.852;25.952;2023-04-01T02:49:50;11.45;;;7.15;;
71558;SDS011;59382;43.852;25.952;2023-04-01T02:52:16;11.65;;;7.65;;
71558;SDS011;59382;43.852;25.952;2023-04-01T02:54:41;10.40;;;7.63;;
71558;SDS011;59382;43.852;25.952;2023-04-01T02:57:07;12.82;;;7.72;;
71558;SDS011;59382;43.852;25.952;2023-04-01T02:59:32;13.52;;;8.07;;
71558;SDS011;59382;43.852;25.952;2023-04-01T03:01:58;14.73;;;8.57;;
71558;SDS011;59382;43.852;25.952;2023-04-01T03:04:23;13.20;;;8.13;;
71558;SDS011;59382;43.852;25.952;2023-04-01T03:06:49;13.02;;;7.95;;
71558;SDS011;59382;43.852;25.952;2023-04-01T03:09:14;9.43;;;7.30;;
71558;SDS011;59382;43.852;25.952;2023-04-01T03:11:41;13.05;;;7.32;;
71558;SDS011;59382;43.852;25.952;2023-04-01T03:14:06;11.45;;;7.32;;
71558;SDS011;59382;43.852;25.952;2023-04-01T03:16:32;11.73;;;7.13;;
71558;SDS011;59382;43.852;25.952;2023-04-01T03:18:57;10.98;;;7.55;;
71558;SDS011;59382;43.852;25.952;2023-04-01T03:21:24;13.20;;;8.00;;
71558;SDS011;59382;43.852;25.952;2023-04-01T03:23:50;10.30;;;7.65;;
71558;SDS011;59382;43.852;25.952;2023-04-01T03:26:16;12.98;;;7.68;;
71558;SDS011;59382;43.852;25.952;2023-04-01T03:28:43;10.55;;;7.63;;
71558;SDS011;59382;43.852;25.952;2023-04-01T03:31:09;12.25;;;7.25;;
71558;SDS011;59382;43.852;25.952;2023-04-01T03:33:34;12.75;;;7.75;;
71558;SDS011;59382;43.852;25.952;2023-04-01T03:36:00;21.23;;;9.57;;
71558;SDS011;59382;43.852;25.952;2023-04-01T03:38:26;11.95;;;6.88;;
71558;SDS011;59382;43.852;25.952;2023-04-01T03:40:51;16.00;;;7.75;;
71558;SDS011;59382;43.852;25.952;2023-04-01T03:43:17;14.32;;;7.93;;
71558;SDS011;59382;43.852;25.952;2023-04-01T03:45:46;15.00;;;7.03;;
71558;SDS011;59382;43.852;25.952;2023-04-01T03:48:15;10.52;;;6.40;;
71558;SDS011;59382;43.852;25.952;2023-04-01T03:50:41;10.55;;;6.40;;
71558;SDS011;59382;43.852;25.952;2023-04-01T03:53:06;10.40;;;7.07;;
71558;SDS011;59382;43.852;25.952;2023-04-01T03:55:32;9.70;;;6.20;;
71558;SDS011;59382;43.852;25.952;2023-04-01T03:57:59;43.95;;;9.07;;
71558;SDS011;59382;43.852;25.952;2023-04-01T04:00:26;26.33;;;7.78;;
71558;SDS011;59382;43.852;25.952;2023-04-01T04:02:52;25.77;;;8.27;;
71558;SDS011;59382;43.852;25.952;2023-04-01T04:05:18;28.50;;;8.80;;
71558;SDS011;59382;43.852;25.952;2023-04-01T04:07:43;18.73;;;7.43;;
71558;SDS011;59382;43.852;25.952;2023-04-01T04:10:08;15.35;;;6.18;;
71558;SDS011;59382;43.852;25.952;2023-04-01T04:12:34;21.67;;;6.43;;
71558;SDS011;59382;43.852;25.952;2023-04-01T04:15:00;12.32;;;5.32;;
71558;SDS011;59382;43.852;25.952;2023-04-01T04:17:25;8.88;;;4.90;;
71558;SDS011;59382;43.852;25.952;2023-04-01T04:19:51;9.30;;;5.50;;
71558;SDS011;59382;43.852;25.952;2023-04-01T04:22:16;12.98;;;4.53;;
71558;SDS011;59382;43.852;25.952;2023-04-01T04:24:42;8.82;;;4.10;;
71558;SDS011;59382;43.852;25.952;2023-04-01T04:27:07;7.90;;;4.20;;
71558;SDS011;59382;43.852;25.952;2023-04-01T04:29:33;8.18;;;4.65;;
71558;SDS011;59382;43.852;25.952;2023-04-01T04:31:58;12.00;;;5.25;;
71558;SDS011;59382;43.852;25.952;2023-04-01T04:34:24;11.77;;;6.07;;
71558;SDS011;59382;43.852;25.952;2023-04-01T04:36:49;7.05;;;6.35;;
71558;SDS011;59382;43.852;25.952;2023-04-01T04:39:15;9.18;;;5.93;;
71558;SDS011;59382;43.852;25.952;2023-04-01T04:41:40;9.30;;;5.85;;
71558;SDS011;59382;43.852;25.952;2023-04-01T04:44:07;8.00;;;5.28;;
71558;SDS011;59382;43.852;25.952;2023-04-01T04:46:32;12.40;;;6.45;;
71558;SDS011;59382;43.852;25.952;2023-04-01T04:48:58;6.15;;;4.82;;
71558;SDS011;59382;43.852;25.952;2023-04-01T04:51:23;5.85;;;4.35;;
71558;SDS011;59382;43.852;25.952;2023-04-01T04:53:49;6.47;;;3.97;;
71558;SDS011;59382;43.852;25.952;2023-04-01T04:56:21;5.13;;;3.40;;
71558;SDS011;59382;43.852;25.952;2023-04-01T04:58:48;10.80;;;3.10;;
71558;SDS011;59382;43.852;25.952;2023-04-01T05:01:14;4.72;;;3.25;;
71558;SDS011;59382;43.852;25.952;2023-04-01T05:03:41;5.85;;;3.10;;
71558;SDS011;59382;43.852;25.952;2023-04-01T05:06:07;4.28;;;2.92;;
71558;SDS011;59382;43.852;25.952;2023-04-01T05:08:35;8.95;;;3.13;;
71558;SDS011;59382;43.852;25.952;2023-04-01T05:11:01;7.88;;;3.00;;
71558;SDS011;59382;43.852;25.952;2023-04-01T05:13:27;6.32;;;2.75;;
71558;SDS011;59382;43.852;25.952;2023-04-01T05:15:53;8.98;;;2.90;;
71558;SDS011;59382;43.852;25.952;2023-04-01T05:18:20;4.57;;;2.45;;
71558;SDS011;59382;43.852;25.952;2023-04-01T05:20:47;5.10;;;2.50;;
71558;SDS011;59382;43.852;25.952;2023-04-01T05:23:17;4.38;;;2.75;;
71558;SDS011;59382;43.852;25.952;2023-04-01T05:25:43;13.73;;;5.60;;
71558;SDS011;59382;43.852;25.952;2023-04-01T05:28:10;10.50;;;7.32;;
71558;SDS011;59382;43.852;25.952;2023-04-01T05:30:36;9.70;;;7.35;;
71558;SDS011;59382;43.852;25.952;2023-04-01T05:33:01;9.07;;;6.32;;
71558;SDS011;59382;43.852;25.952;2023-04-01T05:35:27;10.05;;;5.85;;
71558;SDS011;59382;43.852;25.952;2023-04-01T05:37:52;10.05;;;5.65;;
71558;SDS011;59382;43.852;25.952;2023-04-01T05:40:18;9.18;;;5.65;;
71558;SDS011;59382;43.852;25.952;2023-04-01T05:42:43;8.45;;;4.72;;
71558;SDS011;59382;43.852;25.952;2023-04-01T05:45:09;7.22;;;4.30;;
71558;SDS011;59382;43.852;25.952;2023-04-01T05:47:35;14.63;;;3.90;;
71558;SDS011;59382;43.852;25.952;2023-04-01T05:50:00;7.80;;;4.00;;
71558;SDS011;59382;43.852;25.952;2023-04-01T05:52:26;6.25;;;3.38;;
71558;SDS011;59382;43.852;25.952;2023-04-01T05:54:51;6.88;;;3.47;;
71558;SDS011;59382;43.852;25.952;2023-04-01T05:57:17;7.18;;;4.05;;
71558;SDS011;59382;43.852;25.952;2023-04-01T05:59:42;7.05;;;3.60;;
71558;SDS011;59382;43.852;25.952;2023-04-01T06:02:08;9.60;;;3.58;;
71558;SDS011;59382;43.852;25.952;2023-04-01T06:04:38;5.72;;;3.10;;
71558;SDS011;59382;43.852;25.952;2023-04-01T06:07:10;4.82;;;3.03;;
71558;SDS011;59382;43.852;25.952;2023-04-01T06:09:40;4.65;;;2.85;;
71558;SDS011;59382;43.852;25.952;2023-04-01T06:34:03;4.03;;;2.67;;
71558;SDS011;59382;43.852;25.952;2023-04-01T06:44:49;9.05;;;3.40;;
71558;SDS011;59382;43.852;25.952;2023-04-01T06:47:48;8.00;;;3.50;;
71558;SDS011;59382;43.852;25.952;2023-04-01T06:50:34;7.50;;;3.22;;
71558;SDS011;59382;43.852;25.952;2023-04-01T06:53:06;5.50;;;3.55;;
71558;SDS011;59382;43.852;25.952;2023-04-01T06:58:00;9.57;;;3.38;;
71558;SDS011;59382;43.852;25.952;2023-04-01T07:00:35;6.15;;;3.05;;
71558;SDS011;59382;43.852;25.952;2023-04-01T07:05:48;11.27;;;4.32;;
71558;SDS011;59382;43.852;25.952;2023-04-01T07:08:20;5.07;;;3.15;;
71558;SDS011;59382;43.852;25.952;2023-04-01T07:10:53;6.53;;;2.92;;
71558;SDS011;59382;43.852;25.952;2023-04-01T07:13:41;6.97;;;3.03;;
71558;SDS011;59382;43.852;25.952;2023-04-01T07:18:58;3.33;;;2.65;;
71558;SDS011;59382;43.852;25.952;2023-04-01T07:21:51;5.32;;;2.95;;
71558;SDS011;59382;43.852;25.952;2023-04-01T07:27:15;7.95;;;3.47;;
71558;SDS011;59382;43.852;25.952;2023-04-01T07:29:41;7.40;;;3.65;;
71558;SDS011;59382;43.852;25.952;2023-04-01T07:34:51;7.05;;;4.05;;
71558;SDS011;59382;43.852;25.952;2023-04-01T07:37:25;13.63;;;4.95;;
71558;SDS011;59382;43.852;25.952;2023-04-01T07:58:44;10.38;;;5.25;;
71558;SDS011;59382;43.852;25.952;2023-04-01T08:01:39;17.35;;;5.07;;
71558;SDS011;59382;43.852;25.952;2023-04-01T08:07:03;21.58;;;4.18;;
71558;SDS011;59382;43.852;25.952;2023-04-01T08:10:38;13.93;;;4.90;;
71558;SDS011;59382;43.852;25.952;2023-04-01T08:21:11;10.10;;;6.45;;
71558;SDS011;59382;43.852;25.952;2023-04-01T08:23:44;13.88;;;5.18;;
71558;SDS011;59382;43.852;25.952;2023-04-01T08:29:20;12.35;;;5.47;;
71558;SDS011;59382;43.852;25.952;2023-04-01T08:32:00;11.65;;;5.30;;
71558;SDS011;59382;43.852;25.952;2023-04-01T08:34:32;11.82;;;5.38;;
71558;SDS011;59382;43.852;25.952;2023-04-01T08:37:05;17.83;;;5.05;;
71558;SDS011;59382;43.852;25.952;2023-04-01T08:39:41;14.30;;;6.20;;
71558;SDS011;59382;43.852;25.952;2023-04-01T08:56:06;10.73;;;4.75;;
71558;SDS011;59382;43.852;25.952;2023-04-01T09:10:18;10.45;;;4.28;;
71558;SDS011;59382;43.852;25.952;2023-04-01T09:18:16;11.77;;;4.20;;
71558;SDS011;59382;43.852;25.952;2023-04-01T09:27:15;10.27;;;4.22;;
71558;SDS011;59382;43.852;25.952;2023-04-01T09:40:56;9.70;;;4.18;;
71558;SDS011;59382;43.852;25.952;2023-04-01T10:28:34;12.88;;;3.92;;
71558;SDS011;59382;43.852;25.952;2023-04-01T10:37:30;7.55;;;2.95;;
71558;SDS011;59382;43.852;25.952;2023-04-01T10:59:46;6.20;;;2.28;;
71558;SDS011;59382;43.852;25.952;2023-04-01T11:02:42;7.03;;;3.38;;
71558;SDS011;59382;43.852;25.952;2023-04-01T11:14:08;6.65;;;3.15;;
71558;SDS011;59382;43.852;25.952;2023-04-01T11:37:29;5.45;;;3.55;;
71558;SDS011;59382;43.852;25.952;2023-04-01T11:42:58;6.88;;;3.95;;
71558;SDS011;59382;43.852;25.952;2023-04-01T11:52:21;7.13;;;4.00;;
71558;SDS011;59382;43.852;25.952;2023-04-01T12:03:38;8.60;;;5.20;;
71558;SDS011;59382;43.852;25.952;2023-04-01T12:06:30;8.70;;;5.15;;
71558;SDS011;59382;43.852;25.952;2023-04-01T12:09:10;9.20;;;5.72;;
71558;SDS011;59382;43.852;25.952;2023-04-01T12:33:45;8.07;;;4.60;;
71558;SDS011;59382;43.852;25.952;2023-04-01T12:47:16;7.78;;;4.50;;
71558;SDS011;59382;43.852;25.952;2023-04-01T13:03:54;8.43;;;4.80;;
71558;SDS011;59382;43.852;25.952;2023-04-01T13:06:40;12.80;;;5.63;;
71558;SDS011;59382;43.852;25.952;2023-04-01T13:17:59;8.70;;;4.70;;
71558;SDS011;59382;43.852;25.952;2023-04-01T13:20:19;9.65;;;4.68;;
71558;SDS011;59382;43.852;25.952;2023-04-01T13:38:51;11.32;;;4.72;;
71558;SDS011;59382;43.852;25.952;2023-04-01T13:44:22;12.82;;;5.93;;
71558;SDS011;59382;43.852;25.952;2023-04-01T13:52:43;10.02;;;5.03;;
71558;SDS011;59382;43.852;25.952;2023-04-01T14:01:40;8.32;;;4.88;;
71558;SDS011;59382;43.852;25.952;2023-04-01T14:13:00;32.47;;;18.75;;
71558;SDS011;59382;43.852;25.952;2023-04-01T14:27:01;13.07;;;5.35;;
71558;SDS011;59382;43.852;25.952;2023-04-01T14:32:57;8.60;;;4.93;;
71558;SDS011;59382;43.852;25.952;2023-04-01T14:41:56;8.48;;;5.45;;
71558;SDS011;59382;43.852;25.952;2023-04-01T14:44:49;16.58;;;9.05;;
71558;SDS011;59382;43.852;25.952;2023-04-01T14:47:42;14.68;;;9.48;;
71558;SDS011;59382;43.852;25.952;2023-04-01T14:52:55;9.18;;;5.78;;
71558;SDS011;59382;43.852;25.952;2023-04-01T14:55:31;10.20;;;6.57;;
71558;SDS011;59382;43.852;25.952;2023-04-01T14:58:08;7.82;;;5.63;;
71558;SDS011;59382;43.852;25.952;2023-04-01T15:01:17;8.65;;;5.40;;
71558;SDS011;59382;43.852;25.952;2023-04-01T15:06:53;12.18;;;6.90;;
71558;SDS011;59382;43.852;25.952;2023-04-01T15:12:51;21.83;;;8.65;;
71558;SDS011;59382;43.852;25.952;2023-04-01T15:18:05;12.95;;;7.63;;
71558;SDS011;59382;43.852;25.952;2023-04-01T15:20:42;16.55;;;7.50;;
71558;SDS011;59382;43.852;25.952;2023-04-01T15:31:27;8.52;;;5.43;;
71558;SDS011;59382;43.852;25.952;2023-04-01T15:37:09;5.32;;;4.03;;
71558;SDS011;59382;43.852;25.952;2023-04-01T15:43:35;13.90;;;4.43;;
71558;SDS011;59382;43.852;25.952;2023-04-01T15:58:01;7.95;;;3.95;;
71558;SDS011;59382;43.852;25.952;2023-04-01T16:05:50;9.25;;;7.03;;
71558;SDS011;59382;43.852;25.952;2023-04-01T16:21:48;5.63;;;3.40;;
71558;SDS011;59382;43.852;25.952;2023-04-01T16:24:21;13.23;;;5.22;;
71558;SDS011;59382;43.852;25.952;2023-04-01T16:32:41;9.05;;;5.03;;
71558;SDS011;59382;43.852;25.952;2023-04-01T16:40:44;14.75;;;5.90;;
71558;SDS011;59382;43.852;25.952;2023-04-01T16:43:23;12.75;;;6.10;;
71558;SDS011;59382;43.852;25.952;2023-04-01T16:51:45;20.27;;;6.50;;
71558;SDS011;59382;43.852;25.952;2023-04-01T16:59:46;15.77;;;5.50;;
71558;SDS011;59382;43.852;25.952;2023-04-01T17:02:38;17.67;;;6.35;;
71558;SDS011;59382;43.852;25.952;2023-04-01T17:05:15;11.50;;;5.47;;
71558;SDS011;59382;43.852;25.952;2023-04-01T17:21:10;12.52;;;7.00;;
71558;SDS011;59382;43.852;25.952;2023-04-01T17:23:51;17.05;;;7.15;;
71558;SDS011;59382;43.852;25.952;2023-04-01T17:45:47;17.15;;;8.20;;
71558;SDS011;59382;43.852;25.952;2023-04-01T17:56:15;12.77;;;7.88;;
71558;SDS011;59382;43.852;25.952;2023-04-01T18:02:10;13.18;;;6.75;;
71558;SDS011;59382;43.852;25.952;2023-04-01T18:10:26;19.70;;;8.13;;
71558;SDS011;59382;43.852;25.952;2023-04-01T18:23:45;19.20;;;10.48;;
71558;SDS011;59382;43.852;25.952;2023-04-01T18:26:35;23.10;;;11.38;;
71558;SDS011;59382;43.852;25.952;2023-04-01T18:31:51;16.27;;;9.88;;
71558;SDS011;59382;43.852;25.952;2023-04-01T18:37:54;21.70;;;9.48;;
71558;SDS011;59382;43.852;25.952;2023-04-01T18:43:26;16.60;;;8.70;;
71558;SDS011;59382;43.852;25.952;2023-04-01T18:51:56;10.77;;;5.50;;
71558;SDS011;59382;43.852;25.952;2023-04-01T18:55:15;13.65;;;5.55;;
71558;SDS011;59382;43.852;25.952;2023-04-01T19:00:46;9.35;;;5.25;;
71558;SDS011;59382;43.852;25.952;2023-04-01T19:03:31;10.27;;;5.43;;
71558;SDS011;59382;43.852;25.952;2023-04-01T19:06:00;12.55;;;5.85;;
71558;SDS011;59382;43.852;25.952;2023-04-01T19:08:35;13.98;;;7.00;;
71558;SDS011;59382;43.852;25.952;2023-04-01T19:11:09;12.20;;;5.85;;
71558;SDS011;59382;43.852;25.952;2023-04-01T19:27:46;7.18;;;4.50;;
71558;SDS011;59382;43.852;25.952;2023-04-01T19:33:17;9.80;;;3.83;;
71558;SDS011;59382;43.852;25.952;2023-04-01T19:35:47;11.73;;;3.85;;
71558;SDS011;59382;43.852;25.952;2023-04-01T19:38:48;12.10;;;4.00;;
71558;SDS011;59382;43.852;25.952;2023-04-01T19:44:29;7.38;;;3.45;;
71558;SDS011;59382;43.852;25.952;2023-04-01T19:49:52;5.80;;;3.30;;
71558;SDS011;59382;43.852;25.952;2023-04-01T19:52:36;8.98;;;3.70;;
71558;SDS011;59382;43.852;25.952;2023-04-01T20:00:24;5.68;;;3.42;;
71558;SDS011;59382;43.852;25.952;2023-04-01T20:03:07;5.97;;;3.65;;
71558;SDS011;59382;43.852;25.952;2023-04-01T20:05:51;7.88;;;3.70;;
71558;SDS011;59382;43.852;25.952;2023-04-01T20:08:35;7.88;;;3.70;;
71558;SDS011;59382;43.852;25.952;2023-04-01T20:11:21;5.03;;;2.80;;
71558;SDS011;59382;43.852;25.952;2023-04-01T20:22:30;3.17;;;2.38;;
71558;SDS011;59382;43.852;25.952;2023-04-01T20:25:21;6.45;;;2.83;;
71558;SDS011;59382;43.852;25.952;2023-04-01T20:27:50;2.80;;;2.30;;
71558;SDS011;59382;43.852;25.952;2023-04-01T20:30:51;3.88;;;1.85;;
71558;SDS011;59382;43.852;25.952;2023-04-01T20:36:21;1.70;;;1.20;;
71558;SDS011;59382;43.852;25.952;2023-04-01T20:44:24;1.42;;;0.77;;
71558;SDS011;59382;43.852;25.952;2023-04-01T20:52:42;0.88;;;0.68;;
71558;SDS011;59382;43.852;25.952;2023-04-01T21:00:49;1.60;;;0.43;;
71558;SDS011;59382;43.852;25.952;2023-04-01T21:16:19;1.00;;;0.70;;
71558;SDS011;59382;43.852;25.952;2023-04-01T21:34:43;7.07;;;0.60;;
71558;SDS011;59382;43.852;25.952;2023-04-01T21:42:47;1.35;;;0.57;;
71558;SDS011;59382;43.852;25.952;2023-04-01T21:45:57;1.40;;;0.40;;
71558;SDS011;59382;43.852;25.952;2023-04-01T22:07:12;1.98;;;0.55;;
71558;SDS011;59382;43.852;25.952;2023-04-01T22:10:28;4.00;;;0.70;;
71558;SDS011;59382;43.852;25.952;2023-04-01T22:12:30;0.55;;;0.40;;
71558;SDS011;59382;43.852;25.952;2023-04-01T22:17:43;1.02;;;0.40;;
71558;SDS011;59382;43.852;25.952;2023-04-01T22:28:12;1.23;;;0.50;;
71558;SDS011;59382;43.852;25.952;2023-04-01T22:31:03;0.40;;;0.40;;
71558;SDS011;59382;43.852;25.952;2023-04-01T22:33:38;0.52;;;0.50;;
71558;SDS011;59382;43.852;25.952;2023-04-01T22:38:58;1.25;;;0.60;;
71558;SDS011;59382;43.852;25.952;2023-04-01T22:47:24;1.23;;;0.70;;
71558;SDS011;59382;43.852;25.952;2023-04-01T22:50:10;0.88;;;0.57;;
71558;SDS011;59382;43.852;25.952;2023-04-01T22:52:44;0.52;;;0.45;;
71558;SDS011;59382;43.852;25.952;2023-04-01T22:55:15;1.20;;;0.73;;
71558;SDS011;59382;43.852;25.952;2023-04-01T22:58:05;3.00;;;0.70;;
71558;SDS011;59382;43.852;25.952;2023-04-01T23:03:17;0.50;;;0.50;;
71558;SDS011;59382;43.852;25.952;2023-04-01T23:05:54;0.40;;;0.40;;
71558;SDS011;59382;43.852;25.952;2023-04-01T23:11:20;0.90;;;0.60;;
71558;SDS011;59382;43.852;25.952;2023-04-01T23:16:56;0.95;;;0.70;;
71558;SDS011;59382;43.852;25.952;2023-04-01T23:19:37;3.22;;;0.60;;
71558;SDS011;59382;43.852;25.952;2023-04-01T23:22:15;0.88;;;0.50;;
71558;SDS011;59382;43.852;25.952;2023-04-01T23:24:48;0.93;;;0.50;;
71558;SDS011;59382;43.852;25.952;2023-04-01T23:27:23;0.50;;;0.50;;
71558;SDS011;59382;43.852;25.952;2023-04-01T23:30:00;6.15;;;0.80;;
71558;SDS011;59382;43.852;25.952;2023-04-01T23:32:26;1.73;;;0.73;;
71558;SDS011;59382;43.852;25.952;2023-04-01T23:34:56;1.30;;;0.68;;
71558;SDS011;59382;43.852;25.952;2023-04-01T23:37:24;1.58;;;0.70;;
71558;SDS011;59382;43.852;25.952;2023-04-01T23:39:53;0.55;;;0.55;;
71558;SDS011;59382;43.852;25.952;2023-04-01T23:44:57;3.33;;;0.57;;
71558;SDS011;59382;43.852;25.952;2023-04-01T23:47:27;0.50;;;0.50;;
71558;SDS011;59382;43.852;25.952;2023-04-01T23:49:56;0.40;;;0.40;;
71558;SDS011;59382;43.852;25.952;2023-04-01T23:52:25;0.68;;;0.50;;
71558;SDS011;59382;43.852;25.952;2023-04-01T23:54:54;2.10;;;0.60;;
71558;SDS011;59382;43.852;25.952;2023-04-01T23:57:27;0.70;;;0.57;;
